CheckWX is a tool to help pilots better visualize weather data.  It is not intended as a substitute for an official pre-flight weather briefing.

12:46:22 UTC

EGQM METAR
Boulmer Airfield Airport
Boulmer, United Kingdom
Current

56 mins ago

EGQM 221150Z AUTO 13004KT 9999 NCD 10/08 Q1032
Observed
Feb-22 @ 11:50 UTC
Wind
  • 130° at 4 KTS
Visibility
10,000+ meters
Flight Rules
VFR
Cloud Levels
  • Clear skies
Temperature
10°C / 50°F
Dewpoint
C / 46°F
Humidity
88%
Altimeter
30.47" Hg
Pressure
1031.91 hPa
Previous

2 hours ago

EGQM 221050Z AUTO 15008KT 9999 NCD 08/07 Q1032
Observed
Feb-22 @ 10:50 UTC
Wind
  • 150° at 8 KTS
Visibility
10,000+ meters
Flight Rules
VFR
Cloud Levels
  • Clear skies
Temperature
C / 46°F
Dewpoint
C / 45°F
Humidity
93%
Altimeter
30.47" Hg
Pressure
1031.91 hPa
Previous

3 hours ago

EGQM 220950Z AUTO 15006KT 7000 BR SCT160/// 07/06 Q1032
Observed
Feb-22 @ 09:50 UTC
Wind
  • 150° at 6 KTS
Visibility
7,001 meters
Flight Rules
MVFR
Conditions
Mist
Cloud Levels
  • Scattered at 16,000' AGL
Temperature
C / 45°F
Dewpoint
C / 43°F
Humidity
93%
Altimeter
30.47" Hg
Pressure
1031.91 hPa